Time;durP1;ratioP1;P1;durP2;ratioP2;P2;SDS_P1;SDS_P2;PMS_P1;PMS_P2;Temp;Humidity;BMP_temperature;BMP_pressure;BME280_temperature;BME280_humidity;BME280_pressure;Samples;Min_cycle;Max_cycle;Signal;HPM_P1;HPM_P2
2022/08/18 00:02:07;;;;;;;10.13;8.35;;;18.20;99.90;;;;;;5013786;28;20111;-73
2022/08/18 00:04:40;;;;;;;9.00;8.10;;;18.20;99.90;;;;;;5047697;28;20039;-73
2022/08/18 00:07:21;;;;;;;7.40;6.70;;;18.20;99.90;;;;;;5017054;28;20080;-73
2022/08/18 00:09:53;;;;;;;8.27;6.68;;;18.20;99.90;;;;;;5014840;28;20048;-73
2022/08/18 00:12:29;;;;;;;7.45;6.13;;;18.30;99.90;;;;;;5033402;28;20041;-73
2022/08/18 00:15:04;;;;;;;6.43;5.72;;;18.30;99.90;;;;;;5029750;28;20046;-74
2022/08/18 00:17:36;;;;;;;8.40;6.25;;;18.40;99.90;;;;;;5013903;28;20495;-73
2022/08/18 00:20:15;;;;;;;6.20;5.60;;;18.50;99.90;;;;;;5034376;28;20072;-73
2022/08/18 00:22:48;;;;;;;6.47;5.85;;;18.50;99.90;;;;;;5032942;28;20063;-74
2022/08/18 00:25:21;;;;;;;6.28;5.68;;;18.50;99.90;;;;;;5036064;28;20055;-73
2022/08/18 00:27:48;;;;;;;7.57;6.13;;;18.40;99.90;;;;;;5036973;28;20049;-73
2022/08/18 00:30:17;;;;;;;8.35;6.85;;;18.30;99.90;;;;;;5020140;28;20045;-73
2022/08/18 00:32:56;;;;;;;7.93;7.13;;;18.20;99.90;;;;;;5036155;28;20041;-73
2022/08/18 00:35:31;;;;;;;10.65;7.32;;;18.10;99.90;;;;;;5014292;28;20037;-73
2022/08/18 00:38:06;;;;;;;8.13;6.85;;;18.10;99.90;;;;;;5020452;28;20052;-73
2022/08/18 00:40:41;;;;;;;7.65;6.43;;;18.10;99.90;;;;;;5021040;28;20055;-73
2022/08/18 00:43:36;;;;;;;8.10;7.30;;;18.10;99.90;;;;;;5016198;28;20045;-73
2022/08/18 00:46:07;;;;;;;8.68;7.82;;;18.10;99.90;;;;;;5034338;28;20402;-73
2022/08/18 00:48:38;;;;;;;8.93;8.02;;;18.10;99.90;;;;;;5034675;28;20045;-73
2022/08/18 00:51:46;;;;;;;9.60;8.60;;;18.10;99.90;;;;;;5017150;28;20079;-73
2022/08/18 00:54:28;;;;;;;11.15;8.05;;;18.10;99.90;;;;;;5026326;28;20052;-74
2022/08/18 00:57:05;;;;;;;10.50;9.25;;;18.10;99.90;;;;;;5020572;28;20037;-73
2022/08/18 01:00:10;;;;;;;9.38;8.38;;;18.00;99.90;;;;;;5025825;28;20479;-73
2022/08/18 01:02:42;;;;;;;10.55;9.32;;;18.00;99.90;;;;;;5052144;28;20033;-73
2022/08/18 01:05:32;;;;;;;9.18;8.27;;;18.00;99.90;;;;;;5018978;28;20566;-73
2022/08/18 01:08:04;;;;;;;10.15;9.15;;;17.90;99.90;;;;;;5049605;28;20091;-72
2022/08/18 01:10:32;;;;;;;9.75;8.77;;;17.90;99.90;;;;;;5035598;28;20044;-74
2022/08/18 01:13:04;;;;;;;9.50;8.52;;;18.00;99.90;;;;;;5030356;28;20513;-73
2022/08/18 01:15:37;;;;;;;8.90;8.10;;;18.00;99.90;;;;;;5018132;28;20037;-73
2022/08/18 01:24:11;;;;;;;8.77;7.97;;;18.00;99.90;;;;;;5048536;28;20049;-73
2022/08/18 01:26:48;;;;;;;8.75;7.80;;;18.00;99.90;;;;;;5018863;28;20045;-73
2022/08/18 01:29:20;;;;;;;8.85;7.95;;;18.10;99.90;;;;;;5010737;28;20050;-73
2022/08/18 01:31:55;;;;;;;9.57;8.68;;;18.10;99.90;;;;;;5018022;28;20094;-72
2022/08/18 01:34:27;;;;;;;9.32;7.95;;;18.10;99.90;;;;;;5033655;28;20048;-73
2022/08/18 01:36:55;;;;;;;8.63;7.72;;;18.00;99.90;;;;;;5050981;28;20043;-74
2022/08/18 01:39:27;;;;;;;8.40;7.55;;;18.00;99.90;;;;;;5019292;28;20047;-73
2022/08/18 01:41:54;;;;;;;9.35;8.10;;;17.90;99.90;;;;;;5034749;28;20052;-73
2022/08/18 01:44:20;;;;;;;9.50;7.25;;;17.90;99.90;;;;;;5037396;28;20060;-73
2022/08/18 01:46:52;;;;;;;8.68;7.45;;;17.80;99.90;;;;;;5037386;28;20534;-73
2022/08/18 01:49:24;;;;;;;8.98;8.05;;;17.80;99.90;;;;;;5039144;28;20041;-72
2022/08/18 01:51:56;;;;;;;8.45;6.78;;;17.80;99.90;;;;;;5034708;28;20041;-73
2022/08/18 01:54:28;;;;;;;8.10;7.30;;;17.70;99.90;;;;;;5030496;28;20376;-72
2022/08/18 01:57:01;;;;;;;10.05;7.57;;;17.70;99.90;;;;;;5033476;28;20406;-74
2022/08/18 01:59:34;;;;;;;7.60;6.80;;;17.70;99.90;;;;;;5018701;28;20123;-73
2022/08/18 02:02:06;;;;;;;8.18;7.38;;;17.70;99.90;;;;;;5034330;28;20465;-74
2022/08/18 02:04:38;;;;;;;8.38;7.10;;;17.80;99.90;;;;;;5032662;28;20052;-73
2022/08/18 02:07:08;;;;;;;8.27;6.90;;;17.80;99.90;;;;;;5016042;28;20045;-73
2022/08/18 02:09:41;;;;;;;7.72;7.03;;;17.80;99.90;;;;;;5030141;28;20045;-73
2022/08/18 02:12:13;;;;;;;9.80;7.90;;;17.80;99.90;;;;;;5031321;28;20044;-73
2022/08/18 02:14:45;;;;;;;8.70;7.38;;;17.70;99.90;;;;;;5049404;28;20045;-73
2022/08/18 02:17:17;;;;;;;9.43;8.10;;;17.60;99.90;;;;;;5014406;28;20053;-73
2022/08/18 02:19:49;;;;;;;7.70;6.90;;;17.60;99.90;;;;;;5052065;28;20049;-73
2022/08/18 02:22:21;;;;;;;8.07;7.28;;;17.60;99.90;;;;;;5029979;28;20430;-74
2022/08/18 02:24:55;;;;;;;7.35;6.65;;;17.60;99.90;;;;;;5035512;23;20052;-72
2022/08/18 02:27:28;;;;;;;8.52;7.63;;;17.60;99.90;;;;;;5042369;28;20029;-72
2022/08/18 02:30:01;;;;;;;15.20;8.88;;;17.70;99.90;;;;;;5044449;28;20033;-72
2022/08/18 02:32:32;;;;;;;7.47;6.78;;;17.70;99.90;;;;;;5045300;28;20040;-73
2022/08/18 02:35:06;;;;;;;7.05;6.35;;;17.70;99.90;;;;;;5038391;28;20045;-71
2022/08/18 02:37:41;;;;;;;8.82;7.95;;;17.70;99.90;;;;;;5047273;28;20037;-72
2022/08/18 02:40:14;;;;;;;8.43;7.55;;;17.70;99.90;;;;;;5046596;28;20144;-72
2022/08/18 02:42:46;;;;;;;8.48;7.68;;;17.70;99.90;;;;;;5025724;28;20136;-72
2022/08/18 02:45:18;;;;;;;8.65;7.60;;;17.70;99.90;;;;;;5038621;28;20135;-72
2022/08/18 02:47:54;;;;;;;7.63;6.93;;;17.70;99.90;;;;;;5031227;28;20051;-72
2022/08/18 02:50:26;;;;;;;7.53;6.55;;;17.70;99.90;;;;;;5038506;28;20045;-71
2022/08/18 02:53:01;;;;;;;8.27;7.47;;;17.70;99.90;;;;;;5041366;28;20041;-72
2022/08/18 02:55:32;;;;;;;7.90;7.20;;;17.70;99.90;;;;;;5045096;28;20036;-71
2022/08/18 02:58:04;;;;;;;8.35;7.55;;;17.70;99.90;;;;;;5027152;28;20044;-71
2022/08/18 03:00:37;;;;;;;8.25;7.45;;;17.80;99.90;;;;;;5047273;28;20491;-72
2022/08/18 03:03:08;;;;;;;9.52;8.63;;;17.80;99.90;;;;;;5027055;28;20045;-71
2022/08/18 03:05:40;;;;;;;12.35;9.25;;;17.80;99.90;;;;;;5038931;28;20051;-71
2022/08/18 03:08:12;;;;;;;10.02;8.98;;;17.70;99.90;;;;;;5037121;28;20048;-71
2022/08/18 03:10:44;;;;;;;9.98;8.93;;;17.70;99.90;;;;;;5023180;28;20053;-72
2022/08/18 03:13:12;;;;;;;10.50;9.38;;;17.70;99.90;;;;;;5034777;28;20037;-71
2022/08/18 03:15:44;;;;;;;10.95;9.57;;;17.70;99.90;;;;;;5047060;28;20060;-72
2022/08/18 03:18:15;;;;;;;11.10;10.00;;;17.70;99.90;;;;;;5030163;28;20033;-72
2022/08/18 03:20:49;;;;;;;10.88;9.52;;;17.70;99.90;;;;;;5041183;28;20045;-72
2022/08/18 03:23:21;;;;;;;12.20;11.00;;;17.60;99.90;;;;;;5037745;28;20045;-72
2022/08/18 03:25:53;;;;;;;11.32;10.27;;;17.60;99.90;;;;;;5024061;28;20040;-72
2022/08/18 03:28:24;;;;;;;11.80;10.60;;;17.70;99.90;;;;;;5031584;28;20611;-72
2022/08/18 03:30:56;;;;;;;11.57;10.48;;;17.60;99.90;;;;;;5036535;28;20073;-71
2022/08/18 03:33:28;;;;;;;12.60;10.90;;;17.60;99.90;;;;;;5034404;28;20522;-72
2022/08/18 03:36:08;;;;;;;11.80;10.60;;;17.50;99.90;;;;;;5047396;28;20480;-72
2022/08/18 03:38:42;;;;;;;12.48;10.93;;;17.50;99.90;;;;;;5045826;28;20495;-72
2022/08/18 03:41:16;;;;;;;12.25;10.95;;;17.50;99.90;;;;;;5028211;28;20045;-72
2022/08/18 03:43:49;;;;;;;12.05;10.82;;;17.50;99.90;;;;;;5037034;28;20123;-72
2022/08/18 03:46:23;;;;;;;11.98;10.65;;;17.50;99.90;;;;;;5030246;28;20045;-71
2022/08/18 03:48:57;;;;;;;11.15;10.05;;;17.50;99.90;;;;;;5042875;28;20041;-72
2022/08/18 03:51:31;;;;;;;13.13;11.48;;;17.50;99.90;;;;;;5036393;28;20041;-72
2022/08/18 03:54:04;;;;;;;12.20;10.95;;;17.50;99.90;;;;;;5035813;28;20049;-72
2022/08/18 03:56:37;;;;;;;11.43;10.32;;;17.50;99.90;;;;;;5038271;28;20033;-72
2022/08/18 03:59:19;;;;;;;12.63;11.40;;;17.50;99.90;;;;;;5030413;28;20034;-72
2022/08/18 04:01:53;;;;;;;12.18;10.85;;;17.40;99.90;;;;;;5045340;28;20455;-72
2022/08/18 04:04:26;;;;;;;13.65;11.30;;;17.30;99.90;;;;;;5037476;28;20119;-72
2022/08/18 04:07:07;;;;;;;12.77;11.35;;;17.20;99.90;;;;;;5040078;28;20067;-71
2022/08/18 04:09:39;;;;;;;13.05;11.07;;;17.10;99.90;;;;;;5044339;28;20464;-72
2022/08/18 04:12:14;;;;;;;11.98;10.70;;;17.00;99.90;;;;;;5046282;28;20525;-72
2022/08/18 04:14:48;;;;;;;11.73;10.52;;;17.00;99.90;;;;;;5037274;28;20044;-71
2022/08/18 04:17:23;;;;;;;11.20;10.00;;;17.00;99.90;;;;;;5041436;28;20065;-71
2022/08/18 04:19:55;;;;;;;9.95;8.95;;;17.00;99.90;;;;;;5044090;28;20065;-72
2022/08/18 04:22:27;;;;;;;9.75;8.75;;;17.00;99.90;;;;;;5035400;28;20041;-72
2022/08/18 04:25:02;;;;;;;9.88;8.77;;;17.00;99.90;;;;;;5020829;28;20407;-72
2022/08/18 04:27:35;;;;;;;9.15;8.25;;;17.00;99.90;;;;;;5041782;28;20038;-72
2022/08/18 04:30:07;;;;;;;;;;;17.00;99.90;;;;;;5027756;28;20071;-71
2022/08/18 04:32:39;;;;;;;8.38;7.40;;;17.00;99.90;;;;;;5036905;28;20546;-71
2022/08/18 04:35:11;;;;;;;8.65;7.75;;;17.10;99.90;;;;;;5041830;28;20044;-72
2022/08/18 04:37:43;;;;;;;8.45;7.53;;;17.10;99.90;;;;;;5042050;28;20095;-71
2022/08/18 04:40:14;;;;;;;10.13;7.20;;;17.10;99.90;;;;;;5025738;28;20033;-72
2022/08/18 04:42:46;;;;;;;10.38;7.80;;;17.00;99.90;;;;;;5040625;28;20519;-72
2022/08/18 04:45:18;;;;;;;7.95;6.85;;;17.00;99.90;;;;;;5038989;28;20508;-71
2022/08/18 04:47:50;;;;;;;8.60;6.63;;;17.00;99.90;;;;;;5039890;28;20055;-71
2022/08/18 04:50:23;;;;;;;8.23;6.70;;;17.10;99.90;;;;;;5040143;28;20077;-72
2022/08/18 04:55:48;;;;;;;7.97;7.18;;;17.20;99.90;;;;;;5040614;28;20033;-72
2022/08/18 04:58:21;;;;;;;7.95;6.80;;;17.20;99.90;;;;;;5037155;28;20041;-72
2022/08/18 05:01:00;;;;;;;;;;;17.30;99.90;;;;;;5037958;28;20041;-71
2022/08/18 05:03:32;;;;;;;8.05;7.15;;;17.30;99.90;;;;;;5035851;28;20379;-72
2022/08/18 05:06:06;;;;;;;8.40;7.50;;;17.40;99.90;;;;;;5038902;28;20065;-71
2022/08/18 05:08:37;;;;;;;8.27;7.47;;;17.30;99.90;;;;;;5043995;28;20407;-71
2022/08/18 05:11:09;;;;;;;7.85;7.05;;;17.30;99.90;;;;;;5038799;28;20075;-72
2022/08/18 05:13:41;;;;;;;8.32;7.53;;;17.40;99.90;;;;;;5040641;28;20041;-73
2022/08/18 05:16:14;;;;;;;8.02;7.22;;;17.50;99.90;;;;;;5030820;28;20395;-71
2022/08/18 05:18:47;;;;;;;9.00;7.40;;;17.50;99.90;;;;;;5044152;28;20033;-71
2022/08/18 05:21:21;;;;;;;10.93;8.52;;;17.50;99.90;;;;;;5035571;28;20289;-71
2022/08/18 05:23:52;;;;;;;8.13;7.35;;;17.60;99.90;;;;;;5040258;28;20737;-71
2022/08/18 05:26:25;;;;;;;10.07;9.07;;;17.60;99.90;;;;;;5042795;28;20042;-71
2022/08/18 05:28:57;;;;;;;8.80;7.90;;;17.60;99.90;;;;;;5033274;28;20128;-71
2022/08/18 05:31:29;;;;;;;8.43;7.55;;;17.50;99.90;;;;;;5032952;28;20484;-71
2022/08/18 05:34:02;;;;;;;7.80;7.00;;;17.40;99.90;;;;;;5047536;28;20059;-72
2022/08/18 05:36:51;;;;;;;8.88;7.97;;;17.40;99.90;;;;;;5033898;28;20029;-71
2022/08/18 05:39:28;;;;;;;8.88;7.57;;;17.30;99.90;;;;;;5031001;28;20056;-72
2022/08/18 05:42:12;;;;;;;8.85;8.05;;;17.40;99.90;;;;;;5040093;28;20589;-72
2022/08/18 05:44:46;;;;;;;10.73;8.52;;;17.40;99.90;;;;;;5043064;28;20103;-72
2022/08/18 05:47:23;;;;;;;9.82;8.70;;;17.50;99.90;;;;;;5044385;28;20072;-72
2022/08/18 05:50:01;;;;;;;9.25;8.35;;;17.50;99.90;;;;;;5047158;28;20036;-72
2022/08/18 05:52:50;;;;;;;9.20;8.32;;;17.50;99.90;;;;;;5046150;28;20041;-72
2022/08/18 05:58:30;;;;;;;9.32;8.43;;;17.50;99.90;;;;;;5047998;28;20041;-71
2022/08/18 06:01:07;;;;;;;12.88;9.23;;;17.50;99.90;;;;;;5045511;28;20124;-72
2022/08/18 06:03:48;;;;;;;10.85;8.50;;;17.50;99.90;;;;;;5046324;28;20039;-72
2022/08/18 06:06:29;;;;;;;10.48;9.35;;;17.50;99.90;;;;;;5042493;28;20514;-72
2022/08/18 06:09:18;;;;;;;9.07;8.07;;;17.40;99.90;;;;;;5043833;28;20036;-72
2022/08/18 06:11:52;;;;;;;11.75;9.52;;;17.40;99.90;;;;;;5032910;28;20053;-72
2022/08/18 06:14:24;;;;;;;10.32;8.90;;;17.40;99.90;;;;;;5033077;28;20103;-72
2022/08/18 06:17:35;;;;;;;10.02;8.98;;;17.30;99.90;;;;;;5042198;28;20045;-72
2022/08/18 06:20:32;;;;;;;10.32;9.23;;;17.40;99.90;;;;;;5042137;28;20059;-72
2022/08/18 06:23:31;;;;;;;10.35;8.55;;;17.30;99.90;;;;;;5032116;28;20059;-72
2022/08/18 06:26:22;;;;;;;8.75;7.88;;;17.40;99.90;;;;;;5040850;28;20034;-72
2022/08/18 06:29:23;;;;;;;9.80;8.52;;;17.40;99.90;;;;;;5025110;28;20045;-72
2022/08/18 06:32:09;;;;;;;8.10;7.28;;;17.40;99.90;;;;;;5038564;28;20051;-72
2022/08/18 06:34:57;;;;;;;9.52;7.40;;;17.50;99.90;;;;;;5035115;28;20044;-72
2022/08/18 06:37:32;;;;;;;9.10;8.30;;;17.50;99.90;;;;;;5039699;28;20506;-72
2022/08/18 06:40:04;;;;;;;10.60;9.50;;;17.60;99.90;;;;;;5038014;28;20408;-72
2022/08/18 06:42:36;;;;;;;9.48;8.57;;;17.60;99.90;;;;;;5040542;28;20047;-72
2022/08/18 06:45:12;;;;;;;9.05;8.20;;;17.70;99.90;;;;;;5025278;28;20553;-72
2022/08/18 06:48:05;;;;;;;9.52;8.05;;;17.80;99.90;;;;;;5042951;28;20065;-72
2022/08/18 06:50:51;;;;;;;8.95;8.07;;;17.90;99.90;;;;;;5021378;28;20080;-71
2022/08/18 06:53:52;;;;;;;8.23;7.43;;;18.10;99.90;;;;;;5033593;28;20052;-71
2022/08/18 06:56:38;;;;;;;8.77;7.53;;;18.30;99.90;;;;;;5041615;28;20040;-71
2022/08/18 06:59:21;;;;;;;8.63;7.78;;;18.50;99.90;;;;;;5043503;28;20411;-72
2022/08/18 07:02:21;;;;;;;9.55;8.52;;;18.60;99.90;;;;;;5045328;28;20120;-72
2022/08/18 07:05:06;;;;;;;9.95;8.95;;;18.70;99.90;;;;;;5012291;28;20152;-72
2022/08/18 07:07:40;;;;;;;11.93;8.98;;;18.70;99.90;;;;;;5041592;28;20068;-72
2022/08/18 07:10:15;;;;;;;9.55;8.60;;;18.70;99.90;;;;;;5045822;28;20045;-72
2022/08/18 07:12:47;;;;;;;9.85;8.85;;;18.60;99.90;;;;;;5030662;28;20061;-72
2022/08/18 07:15:23;;;;;;;10.50;9.40;;;18.60;99.90;;;;;;5036468;28;20040;-71
2022/08/18 07:18:06;;;;;;;13.68;9.73;;;18.60;99.90;;;;;;5046154;28;20072;-72
2022/08/18 07:20:53;;;;;;;12.00;9.30;;;18.40;99.90;;;;;;5036148;28;20415;-71
2022/08/18 07:23:30;;;;;;;10.90;9.80;;;18.40;99.90;;;;;;5039859;28;20567;-72
2022/08/18 07:26:11;;;;;;;11.02;9.93;;;18.40;99.90;;;;;;5038276;28;20049;-71
2022/08/18 07:28:46;;;;;;;10.55;9.20;;;18.50;99.90;;;;;;5044761;28;20515;-72
2022/08/18 07:31:34;;;;;;;11.50;9.32;;;18.50;99.90;;;;;;5031274;28;20415;-71
2022/08/18 07:34:36;;;;;;;10.70;9.52;;;18.50;99.90;;;;;;5039348;28;20043;-72
2022/08/18 07:37:43;;;;;;;11.93;9.90;;;18.60;99.90;;;;;;5024767;28;20049;-71
2022/08/18 07:40:27;;;;;;;10.88;9.50;;;18.60;99.90;;;;;;5040961;28;20072;-70
2022/08/18 07:43:05;;;;;;;;;;;18.70;99.90;;;;;;5038951;28;20407;-72
2022/08/18 07:45:39;;;;;;;10.10;9.02;;;18.70;99.90;;;;;;5041444;28;19928;-72
2022/08/18 07:48:29;;;;;;;11.23;10.10;;;18.70;99.90;;;;;;5040511;28;20060;-71
2022/08/18 07:51:17;;;;;;;11.80;9.80;;;18.80;99.90;;;;;;5029841;28;20473;-72
2022/08/18 07:54:18;;;;;;;13.07;10.13;;;18.80;99.90;;;;;;5033316;28;20140;-71
2022/08/18 07:57:11;;;;;;;13.27;10.93;;;18.80;99.90;;;;;;5032004;28;20045;-72
2022/08/18 07:59:56;;;;;;;11.30;9.98;;;18.80;99.90;;;;;;5018079;28;20512;-72
2022/08/18 08:02:57;;;;;;;13.00;11.10;;;18.90;99.90;;;;;;5038776;28;20057;-71
2022/08/18 08:05:45;;;;;;;11.48;10.27;;;18.90;99.90;;;;;;5033841;28;20072;-72
2022/08/18 08:08:47;;;;;;;11.05;10.05;;;19.00;99.90;;;;;;5021694;28;20407;-72
2022/08/18 08:11:44;;;;;;;10.70;9.60;;;19.00;99.90;;;;;;5045419;28;20045;-72
2022/08/18 08:14:25;;;;;;;12.95;11.63;;;19.00;99.90;;;;;;5031128;28;20038;-71
2022/08/18 08:17:12;;;;;;;11.85;10.52;;;19.10;99.90;;;;;;5029913;28;20041;-71
2022/08/18 08:20:01;;;;;;;11.52;10.32;;;19.10;99.90;;;;;;5034375;28;20130;-72
2022/08/18 08:23:03;;;;;;;11.35;9.52;;;19.10;99.90;;;;;;5031569;28;20045;-72
2022/08/18 08:25:52;;;;;;;10.90;9.82;;;19.10;99.90;;;;;;5025237;28;20379;-72
2022/08/18 08:28:53;;;;;;;13.13;11.73;;;19.10;99.90;;;;;;5040930;28;20042;-71
2022/08/18 08:31:47;;;;;;;11.18;9.98;;;19.30;99.90;;;;;;5044273;23;20136;-87
2022/08/18 08:34:26;;;;;;;10.65;9.52;;;19.50;99.90;;;;;;5029459;28;20410;-89
2022/08/18 08:37:02;;;;;;;11.25;10.07;;;19.60;99.90;;;;;;5017726;28;20031;-89
2022/08/18 08:39:59;;;;;;;11.10;10.00;;;19.80;99.90;;;;;;5048581;28;20038;-88
2022/08/18 08:42:53;;;;;;;11.38;10.27;;;19.90;99.90;;;;;;5045970;28;20485;-89
2022/08/18 08:45:32;;;;;;;11.10;10.00;;;20.00;99.90;;;;;;5043226;23;20050;-73
2022/08/18 08:48:29;;;;;;;12.40;11.13;;;20.00;99.90;;;;;;5009613;28;20051;-74
2022/08/18 08:51:19;;;;;;;11.52;10.43;;;20.20;99.90;;;;;;5006913;28;20047;-73
2022/08/18 08:53:59;;;;;;;11.68;10.23;;;20.40;99.90;;;;;;5022859;28;20041;-74
2022/08/18 08:56:38;;;;;;;10.93;9.82;;;20.60;99.90;;;;;;4996641;28;20046;-73
2022/08/18 08:59:13;;;;;;;11.70;10.50;;;20.80;99.90;;;;;;4987291;28;20499;-74
2022/08/18 09:02:22;;;;;;;11.10;10.00;;;20.90;99.90;;;;;;5013785;28;20062;-74
2022/08/18 09:05:40;;;;;;;10.95;9.75;;;21.00;99.90;;;;;;5023726;28;20057;-74
2022/08/18 09:08:41;;;;;;;11.13;9.98;;;21.20;99.90;;;;;;4992955;28;20058;-74
2022/08/18 09:11:38;;;;;;;10.70;9.63;;;21.20;99.90;;;;;;5024489;28;20511;-72
2022/08/18 09:15:04;;;;;;;10.60;9.55;;;21.30;99.90;;;;;;5007570;28;20048;-74
2022/08/18 09:17:48;;;;;;;11.20;10.18;;;21.20;99.90;;;;;;4926613;29;20039;-73
2022/08/18 09:20:49;;;;;;;10.07;9.07;;;21.30;99.90;;;;;;5025617;28;20057;-74
2022/08/18 09:23:38;;;;;;;12.68;10.60;;;21.40;99.90;;;;;;5013742;28;20054;-72
2022/08/18 09:26:45;;;;;;;11.07;9.98;;;21.50;99.90;;;;;;5007404;28;20060;-73
2022/08/18 09:29:17;;;;;;;11.23;9.27;;;21.50;99.90;;;;;;5009205;28;20065;-73
2022/08/18 09:32:17;;;;;;;9.95;8.95;;;21.60;99.90;;;;;;4999349;28;20070;-73
2022/08/18 09:35:07;;;;;;;10.77;9.68;;;21.80;99.90;;;;;;5012253;28;20038;-74
2022/08/18 09:44:10;;;;;;;10.82;9.15;;;22.10;99.90;;;;;;5007234;28;20046;-74
2022/08/18 09:46:42;;;;;;;9.33;7.93;;;22.10;99.90;;;;;;5012811;28;20049;-74
2022/08/18 09:49:25;;;;;;;14.75;12.18;;;22.10;99.90;;;;;;5021992;28;20655;-73
2022/08/18 09:51:58;;;;;;;8.68;7.88;;;22.30;99.90;;;;;;4993245;28;20057;-73
2022/08/18 09:54:32;;;;;;;9.05;8.25;;;22.40;99.90;;;;;;5024281;28;20451;-74
2022/08/18 09:57:06;;;;;;;10.82;8.68;;;22.40;99.90;;;;;;5017262;28;20057;-74
2022/08/18 09:59:52;;;;;;;11.23;9.52;;;22.50;99.90;;;;;;5029482;28;20206;-74
2022/08/18 10:02:32;;;;;;;10.63;8.65;;;22.50;99.90;;;;;;5004096;28;20052;-74
2022/08/18 10:05:17;;;;;;;9.77;8.77;;;22.40;99.90;;;;;;4991847;28;20041;-74
2022/08/18 10:08:00;;;;;;;11.23;8.77;;;22.40;99.90;;;;;;5008185;28;20061;-73
2022/08/18 10:10:48;;;;;;;12.70;10.20;;;22.40;99.90;;;;;;5018907;28;20061;-73
2022/08/18 10:13:32;;;;;;;11.48;9.55;;;22.30;99.90;;;;;;4993981;28;20045;-74
2022/08/18 10:16:25;;;;;;;10.48;9.55;;;22.40;99.90;;;;;;5024413;28;20038;-74
2022/08/18 10:19:24;;;;;;;13.07;11.65;;;22.50;99.90;;;;;;5009600;28;20488;-73
2022/08/18 10:21:57;;;;;;;13.65;11.00;;;22.70;99.90;;;;;;4997714;28;20064;-74
2022/08/18 10:24:34;;;;;;;12.40;11.30;;;22.90;99.90;;;;;;5023039;28;20038;-72
2022/08/18 10:27:31;;;;;;;13.52;12.20;;;22.90;99.90;;;;;;5022642;28;20042;-73
2022/08/18 10:30:04;;;;;;;13.35;12.02;;;23.00;99.90;;;;;;5008574;28;20045;-74
2022/08/18 10:32:42;;;;;;;16.63;13.35;;;23.10;99.90;;;;;;5002819;28;20069;-72
2022/08/18 10:35:34;;;;;;;15.63;14.02;;;23.20;99.90;;;;;;5020155;28;20388;-73
2022/08/18 10:38:17;;;;;;;15.50;13.82;;;23.30;99.90;;;;;;5007135;28;20071;-74
2022/08/18 10:40:58;;;;;;;15.43;13.68;;;23.50;99.90;;;;;;4986486;28;20419;-74
2022/08/18 10:43:39;;;;;;;14.55;13.18;;;23.50;99.90;;;;;;5001755;28;20051;-72
2022/08/18 10:46:35;;;;;;;13.80;12.45;;;23.40;99.90;;;;;;5029978;28;20063;-74
2022/08/18 10:49:11;;;;;;;15.20;13.70;;;23.40;99.90;;;;;;4994976;28;20045;-73
2022/08/18 10:52:00;;;;;;;16.05;14.52;;;23.40;99.90;;;;;;5015630;28;20712;-73
2022/08/18 10:54:57;;;;;;;16.88;14.85;;;23.50;99.90;;;;;;5004778;28;20496;-74
2022/08/18 10:57:35;;;;;;;15.40;13.98;;;23.40;99.90;;;;;;4990278;28;20047;-72
2022/08/18 11:00:12;;;;;;;17.48;15.52;;;23.40;99.90;;;;;;5024291;28;20049;-73
2022/08/18 11:03:08;;;;;;;13.63;12.32;;;23.30;99.90;;;;;;5004604;28;20045;-73
2022/08/18 11:05:41;;;;;;;15.48;13.88;;;23.30;99.90;;;;;;5019607;28;20038;-73
2022/08/18 11:08:18;;;;;;;12.77;11.63;;;23.30;99.90;;;;;;4989051;28;20613;-74
2022/08/18 11:10:50;;;;;;;12.60;11.25;;;23.50;99.90;;;;;;5010396;28;20088;-72
2022/08/18 11:13:28;;;;;;;14.27;12.90;;;23.70;99.90;;;;;;5002267;28;20517;-74
2022/08/18 11:16:12;;;;;;;15.30;13.80;;;23.90;99.90;;;;;;5005751;28;20137;-72
2022/08/18 11:18:48;;;;;;;15.75;12.38;;;24.00;99.90;;;;;;5027930;28;20045;-74
2022/08/18 11:21:38;;;;;;;14.88;13.40;;;24.00;99.90;;;;;;4993695;28;20496;-73
2022/08/18 11:24:20;;;;;;;12.60;11.23;;;24.20;99.90;;;;;;5025545;28;20045;-74
2022/08/18 11:26:54;;;;;;;11.52;10.35;;;24.30;99.90;;;;;;4995068;28;20056;-74
2022/08/18 11:29:40;;;;;;;11.95;10.18;;;24.50;99.90;;;;;;4994607;28;20052;-74
2022/08/18 11:32:18;;;;;;;14.38;12.30;;;24.70;99.90;;;;;;5010420;28;20419;-74
2022/08/18 11:35:01;;;;;;;15.15;11.77;;;24.80;99.90;;;;;;4986244;28;20053;-73
2022/08/18 11:37:32;;;;;;;10.02;8.90;;;24.70;99.90;;;;;;4993168;28;20045;-74
2022/08/18 11:40:17;;;;;;;12.80;10.65;;;24.70;99.90;;;;;;5009748;28;20049;-74
2022/08/18 11:42:58;;;;;;;11.35;10.35;;;24.80;99.90;;;;;;4989505;28;20541;-73
2022/08/18 11:45:35;;;;;;;11.77;10.68;;;24.90;99.90;;;;;;5010130;28;20046;-74
2022/08/18 11:48:27;;;;;;;10.75;9.57;;;24.70;99.90;;;;;;5022784;28;20421;-73
2022/08/18 11:51:08;;;;;;;10.50;9.37;;;24.70;99.90;;;;;;5011395;28;20064;-73
2022/08/18 11:53:50;;;;;;;12.77;10.75;;;24.70;99.90;;;;;;4989060;28;20052;-74
2022/08/18 11:56:30;;;;;;;14.05;11.40;;;24.70;99.90;;;;;;4993816;28;20048;-74
2022/08/18 11:59:31;;;;;;;12.98;11.15;;;24.90;99.90;;;;;;5014649;28;20041;-73
2022/08/18 12:02:04;;;;;;;12.95;11.68;;;24.90;99.90;;;;;;5005197;28;20065;-74
2022/08/18 12:04:38;;;;;;;11.77;10.77;;;24.80;99.90;;;;;;5023156;28;20054;-73
2022/08/18 12:07:14;;;;;;;11.32;10.32;;;24.80;99.90;;;;;;5011914;28;20057;-74
2022/08/18 12:10:07;;;;;;;10.57;9.48;;;24.80;99.90;;;;;;5008844;28;20077;-74
2022/08/18 12:12:48;;;;;;;10.35;9.40;;;25.00;99.90;;;;;;5001754;28;20073;-73
2022/08/18 12:15:27;;;;;;;11.15;10.05;;;25.20;99.90;;;;;;5008840;28;20068;-74
2022/08/18 12:17:59;;;;;;;11.40;10.40;;;25.20;99.90;;;;;;4985535;28;20045;-74
2022/08/18 12:20:31;;;;;;;10.45;9.32;;;25.20;99.90;;;;;;5000542;28;20522;-73
2022/08/18 12:23:03;;;;;;;10.63;9.50;;;25.20;99.90;;;;;;5027725;28;20136;-74
2022/08/18 12:25:34;;;;;;;8.90;8.18;;;25.20;99.90;;;;;;5025187;28;20044;-74
2022/08/18 12:28:06;;;;;;;10.13;8.45;;;25.30;99.90;;;;;;5005471;28;20136;-74
2022/08/18 12:30:38;;;;;;;10.20;9.18;;;25.40;99.90;;;;;;5004885;28;20047;-74
2022/08/18 12:33:10;;;;;;;12.25;9.75;;;25.40;99.90;;;;;;5011809;28;20045;-74
2022/08/18 12:35:43;;;;;;;10.82;9.73;;;25.40;99.90;;;;;;5004189;28;20044;-73
2022/08/18 12:38:16;;;;;;;11.10;9.90;;;25.40;99.90;;;;;;5019613;28;20435;-73
2022/08/18 12:40:48;;;;;;;9.68;8.88;;;25.40;99.90;;;;;;4997255;28;20038;-74
2022/08/18 12:43:20;;;;;;;8.32;7.53;;;25.40;99.90;;;;;;5028275;28;20037;-74
2022/08/18 12:45:52;;;;;;;9.30;8.50;;;25.50;99.90;;;;;;5022253;28;20113;-74
2022/08/18 12:48:25;;;;;;;10.02;8.90;;;25.50;99.90;;;;;;5007409;28;20106;-73
2022/08/18 12:50:57;;;;;;;9.88;8.88;;;25.50;99.90;;;;;;5027635;28;20499;-74
2022/08/18 12:53:29;;;;;;;11.43;10.23;;;25.50;99.90;;;;;;5009188;28;20040;-74
2022/08/18 12:56:01;;;;;;;11.03;9.10;;;25.60;99.90;;;;;;5009805;28;20378;-74
2022/08/18 12:58:33;;;;;;;9.88;8.98;;;25.70;99.90;;;;;;5023274;28;20059;-74
2022/08/18 13:01:05;;;;;;;9.13;8.25;;;25.60;99.90;;;;;;5028041;28;20053;-73
2022/08/18 13:03:36;;;;;;;10.15;9.30;;;25.60;99.90;;;;;;5008800;28;20057;-73
2022/08/18 13:06:08;;;;;;;10.38;9.48;;;25.60;99.90;;;;;;5026174;28;20288;-74
2022/08/18 13:08:41;;;;;;;11.05;9.70;;;25.60;99.90;;;;;;5014260;28;20116;-74
2022/08/18 13:11:12;;;;;;;10.35;9.43;;;25.50;99.90;;;;;;5010053;28;20538;-74
2022/08/18 13:13:44;;;;;;;9.43;8.68;;;25.40;99.90;;;;;;5006828;28;20057;-74
2022/08/18 13:16:17;;;;;;;9.40;8.48;;;25.40;99.90;;;;;;5011732;28;20044;-74
2022/08/18 13:18:44;;;;;;;9.55;8.75;;;25.30;99.90;;;;;;5011948;28;20504;-73
2022/08/18 13:21:17;;;;;;;10.07;8.70;;;25.30;99.90;;;;;;5020520;28;20524;-72
2022/08/18 13:23:48;;;;;;;;;;;25.30;99.90;;;;;;5011801;28;20042;-73
2022/08/18 13:26:25;;;;;;;9.60;8.60;;;25.30;99.90;;;;;;5006811;28;19928;-73
2022/08/18 13:28:59;;;;;;;9.65;8.75;;;25.30;99.90;;;;;;5007417;28;20049;-74
2022/08/18 13:31:32;;;;;;;9.88;8.82;;;25.30;99.90;;;;;;5008990;28;20037;-74
2022/08/18 13:34:06;;;;;;;9.23;8.32;;;25.30;99.90;;;;;;5014518;28;20137;-72
2022/08/18 13:36:44;;;;;;;8.18;7.45;;;25.30;99.90;;;;;;5001453;28;20045;-73
2022/08/18 13:39:21;;;;;;;10.30;9.38;;;25.30;99.90;;;;;;4999548;28;20065;-74
2022/08/18 13:41:53;;;;;;;9.88;8.77;;;25.30;99.90;;;;;;5023971;28;20064;-74
2022/08/18 13:44:25;;;;;;;9.35;8.45;;;25.20;99.90;;;;;;5007281;28;20068;-74
2022/08/18 13:46:57;;;;;;;10.13;9.05;;;25.20;99.90;;;;;;4998377;28;20470;-74
2022/08/18 13:49:29;;;;;;;10.05;9.15;;;25.20;99.90;;;;;;4994283;28;20049;-74
2022/08/18 13:52:00;;;;;;;10.07;9.18;;;25.20;99.90;;;;;;5011871;28;20045;-73
2022/08/18 13:54:33;;;;;;;9.77;8.88;;;25.10;99.90;;;;;;5010256;28;20065;-72
2022/08/18 13:57:04;;;;;;;11.07;9.98;;;25.00;99.90;;;;;;4986454;28;20082;-73
2022/08/18 13:59:32;;;;;;;11.18;10.18;;;25.00;99.90;;;;;;5006675;28;20511;-73